Time;durP1;ratioP1;P1;durP2;ratioP2;P2;SDS_P1;SDS_P2;PMS_P1;PMS_P2;Temp;Humidity;BMP_temperature;BMP_pressure;BME280_temperature;BME280_humidity;BME280_pressure;Samples;Min_cycle;Max_cycle;Signal;HPM_P1;HPM_P2
2022/06/20 00:00:24;;;;;;;15.93;8.95;;;15.70;99.90;;;;;;5026941;28;20109;-49
2022/06/20 00:02:53;;;;;;;12.90;8.57;;;15.70;99.90;;;;;;5028898;28;20071;-46
2022/06/20 00:05:32;;;;;;;19.38;9.80;;;15.70;99.90;;;;;;5027544;28;20040;-49
2022/06/20 00:07:57;;;;;;;14.68;9.63;;;15.60;99.90;;;;;;5028823;28;20031;-47
2022/06/20 00:10:25;;;;;;;14.23;9.18;;;15.60;99.90;;;;;;5027973;28;20506;-48
2022/06/20 00:12:52;;;;;;;12.88;8.15;;;15.60;99.90;;;;;;5027362;28;20037;-45
2022/06/20 00:15:45;;;;;;;10.50;8.25;;;15.60;99.90;;;;;;5028768;28;20026;-47
2022/06/20 00:18:11;;;;;;;12.00;7.70;;;15.60;99.90;;;;;;5028275;28;20091;-45
2022/06/20 00:20:37;;;;;;;11.65;7.60;;;15.60;99.90;;;;;;5027923;28;20025;-46
2022/06/20 00:23:02;;;;;;;13.43;8.93;;;15.60;99.90;;;;;;5028476;28;20044;-45
2022/06/20 00:25:30;;;;;;;14.45;9.57;;;15.60;99.90;;;;;;5028677;28;20021;-47
2022/06/20 00:27:55;;;;;;;15.75;9.85;;;15.50;99.90;;;;;;5028584;28;20018;-46
2022/06/20 00:30:22;;;;;;;11.90;9.32;;;15.50;99.90;;;;;;5028366;28;20516;-48
2022/06/20 00:32:47;;;;;;;12.73;9.27;;;15.50;99.90;;;;;;5028949;28;20025;-47
2022/06/20 00:35:14;;;;;;;11.73;9.18;;;15.50;99.90;;;;;;5028457;28;20036;-49
2022/06/20 00:37:39;;;;;;;12.07;9.50;;;15.50;99.90;;;;;;5028573;28;20394;-47
2022/06/20 00:40:20;;;;;;;11.40;9.43;;;15.50;99.90;;;;;;5027671;28;20039;-47
2022/06/20 00:42:45;;;;;;;15.00;9.93;;;15.60;99.90;;;;;;5028394;28;20021;-46
2022/06/20 00:45:13;;;;;;;14.85;10.50;;;15.50;99.90;;;;;;5028417;28;20059;-45
2022/06/20 00:47:39;;;;;;;16.85;9.38;;;15.50;99.90;;;;;;5028531;28;20021;-45
2022/06/20 00:50:18;;;;;;;13.73;9.20;;;15.50;99.90;;;;;;5028063;28;20405;-48
2022/06/20 00:52:48;;;;;;;15.02;9.85;;;15.50;99.90;;;;;;5027321;28;20474;-47
2022/06/20 00:55:33;;;;;;;12.05;8.77;;;15.40;99.90;;;;;;5028494;28;20471;-45
2022/06/20 00:58:28;;;;;;;18.73;8.80;;;15.30;99.90;;;;;;5028145;28;20120;-46
2022/06/20 01:00:55;;;;;;;13.65;8.40;;;15.30;99.90;;;;;;5027408;28;20044;-44
2022/06/20 01:03:23;;;;;;;13.10;8.82;;;15.30;99.90;;;;;;5027075;28;20026;-46
2022/06/20 01:06:06;;;;;;;12.63;8.18;;;15.30;99.90;;;;;;5028691;28;20038;-48
2022/06/20 01:08:47;;;;;;;16.42;8.50;;;15.30;99.90;;;;;;5028290;28;20017;-46
2022/06/20 01:11:22;;;;;;;13.25;8.48;;;15.20;99.90;;;;;;5030251;28;20025;-47
2022/06/20 01:13:50;;;;;;;14.85;8.63;;;15.20;99.90;;;;;;5032026;28;20018;-47
2022/06/20 01:16:32;;;;;;;12.93;7.75;;;15.10;99.90;;;;;;5032047;28;20459;-47
2022/06/20 01:19:01;;;;;;;12.20;7.25;;;15.10;99.90;;;;;;5031688;28;20040;-46
2022/06/20 01:21:34;;;;;;;10.63;7.80;;;15.10;99.90;;;;;;5029763;28;20021;-46
2022/06/20 01:24:31;;;;;;;15.13;8.57;;;15.20;99.90;;;;;;5031885;28;20021;-47
2022/06/20 01:27:18;;;;;;;13.48;8.38;;;15.20;99.90;;;;;;5031785;28;20608;-45
2022/06/20 01:29:44;;;;;;;12.43;7.03;;;15.20;99.90;;;;;;5031352;28;20032;-46
2022/06/20 01:32:10;;;;;;;12.45;8.10;;;15.20;99.90;;;;;;5031922;28;20590;-47
2022/06/20 01:34:36;;;;;;;14.60;8.07;;;15.20;99.90;;;;;;5031824;28;20048;-46
2022/06/20 01:39:51;;;;;;;13.68;10.05;;;15.30;99.90;;;;;;5030914;28;20040;-46
2022/06/20 01:42:21;;;;;;;13.07;8.80;;;15.30;99.90;;;;;;5031389;28;20080;-46
2022/06/20 01:44:58;;;;;;;12.90;9.15;;;15.30;99.90;;;;;;5030201;28;20017;-46
2022/06/20 01:47:23;;;;;;;17.58;9.68;;;15.30;99.90;;;;;;5031168;28;20096;-46
2022/06/20 01:49:55;;;;;;;13.90;8.77;;;15.30;99.90;;;;;;5030550;28;20033;-45
2022/06/20 01:52:33;;;;;;;12.10;9.77;;;15.20;99.90;;;;;;5031566;28;20383;-47
2022/06/20 01:55:07;;;;;;;16.92;9.75;;;15.20;99.90;;;;;;5031192;28;20132;-48
2022/06/20 01:57:35;;;;;;;12.65;8.68;;;15.20;99.90;;;;;;5031237;28;20025;-46
2022/06/20 02:00:06;;;;;;;13.05;8.80;;;15.20;99.90;;;;;;5030438;28;20538;-47
2022/06/20 02:02:36;;;;;;;11.30;8.25;;;15.20;99.90;;;;;;5029790;28;20364;-46
2022/06/20 02:05:06;;;;;;;15.82;7.57;;;15.20;99.90;;;;;;5031096;28;20030;-46
2022/06/20 02:07:32;;;;;;;19.73;8.50;;;15.20;99.90;;;;;;5031016;28;20487;-46
2022/06/20 02:09:58;;;;;;;12.05;8.77;;;15.20;99.90;;;;;;5029000;28;20084;-48
2022/06/20 02:12:25;;;;;;;13.50;9.13;;;15.20;99.90;;;;;;5029603;28;20045;-46
2022/06/20 02:14:56;;;;;;;14.82;8.90;;;15.20;99.90;;;;;;5030856;28;20026;-46
2022/06/20 02:17:33;;;;;;;17.17;9.15;;;15.20;99.90;;;;;;5030797;28;20021;-46
2022/06/20 02:20:02;;;;;;;8.82;7.38;;;15.20;99.90;;;;;;5030258;28;20414;-45
2022/06/20 02:22:30;;;;;;;10.30;7.43;;;15.20;99.90;;;;;;5030354;28;20051;-45
2022/06/20 02:25:01;;;;;;;15.32;7.93;;;15.20;99.90;;;;;;5027600;28;20018;-46
2022/06/20 02:27:36;;;;;;;10.77;7.38;;;15.10;99.90;;;;;;5019287;28;20070;-46
2022/06/20 02:30:03;;;;;;;10.77;8.23;;;15.10;99.90;;;;;;5019210;28;20029;-46
2022/06/20 02:32:35;;;;;;;11.23;7.47;;;15.10;99.90;;;;;;5019728;28;20584;-46
2022/06/20 02:35:03;;;;;;;11.93;7.15;;;15.10;99.90;;;;;;5020417;28;20033;-47
2022/06/20 02:37:29;;;;;;;14.02;7.43;;;15.10;99.90;;;;;;5019128;28;20403;-45
2022/06/20 02:40:00;;;;;;;9.48;6.57;;;15.10;99.90;;;;;;5021565;28;20026;-48
2022/06/20 02:42:41;;;;;;;9.75;7.22;;;15.10;99.90;;;;;;5019509;28;20022;-46
2022/06/20 02:45:11;;;;;;;11.40;7.22;;;15.00;99.90;;;;;;5020974;28;20064;-47
2022/06/20 02:47:40;;;;;;;9.48;7.15;;;15.00;99.90;;;;;;5021000;28;20144;-46
2022/06/20 02:50:06;;;;;;;10.40;7.03;;;15.00;99.90;;;;;;5020012;28;20052;-49
2022/06/20 02:52:51;;;;;;;12.75;7.57;;;15.00;99.90;;;;;;5017212;28;20117;-47
2022/06/20 02:55:18;;;;;;;10.23;7.32;;;15.10;99.90;;;;;;5020624;28;20025;-47
2022/06/20 02:57:48;;;;;;;13.75;9.85;;;15.10;99.90;;;;;;5020436;28;20109;-46
2022/06/20 03:00:18;;;;;;;14.50;9.87;;;15.10;99.90;;;;;;5020239;28;20116;-48
2022/06/20 03:02:51;;;;;;;14.57;9.82;;;15.00;99.90;;;;;;5028665;28;20394;-46
2022/06/20 03:05:18;;;;;;;14.93;9.85;;;15.00;99.90;;;;;;5029683;28;20618;-46
2022/06/20 03:07:44;;;;;;;14.98;9.80;;;15.00;99.90;;;;;;5028229;28;20506;-46
2022/06/20 03:10:22;;;;;;;15.38;10.60;;;15.00;99.90;;;;;;5029031;28;20076;-46
2022/06/20 03:12:48;;;;;;;16.27;10.43;;;15.00;99.90;;;;;;5029634;28;20419;-47
2022/06/20 03:15:15;;;;;;;15.55;10.07;;;14.90;99.90;;;;;;5033681;28;20061;-46
2022/06/20 03:17:45;;;;;;;12.43;9.63;;;15.00;99.90;;;;;;5023710;28;20036;-46
2022/06/20 03:20:13;;;;;;;11.10;8.93;;;15.00;99.90;;;;;;5027453;28;20104;-46
2022/06/20 03:23:05;;;;;;;12.35;10.20;;;15.00;99.90;;;;;;5019996;28;20131;-46
2022/06/20 03:25:31;;;;;;;12.98;9.00;;;15.00;99.90;;;;;;5019326;28;20065;-46
2022/06/20 03:27:57;;;;;;;15.23;10.13;;;15.00;99.90;;;;;;5015983;28;20483;-46
2022/06/20 03:30:28;;;;;;;15.82;10.73;;;14.90;99.90;;;;;;5018884;28;20030;-47
2022/06/20 03:32:53;;;;;;;;;;;14.90;99.90;;;;;;5034672;28;20048;-48
2022/06/20 03:35:19;;;;;;;15.13;9.93;;;14.90;99.90;;;;;;5019488;28;19909;-46
2022/06/20 03:37:44;;;;;;;13.32;9.30;;;14.90;99.90;;;;;;5018790;28;20478;-49
2022/06/20 03:40:11;;;;;;;18.63;11.85;;;15.00;99.90;;;;;;5014147;28;20044;-45
2022/06/20 03:42:37;;;;;;;11.75;10.10;;;15.00;99.90;;;;;;5009841;28;20092;-46
2022/06/20 03:45:06;;;;;;;15.82;10.82;;;14.90;99.90;;;;;;5009208;28;20037;-47
2022/06/20 03:47:47;;;;;;;17.15;11.18;;;14.90;99.90;;;;;;5009414;28;20026;-48
2022/06/20 03:50:32;;;;;;;16.10;11.88;;;14.80;99.90;;;;;;5008742;28;20014;-48
2022/06/20 03:53:06;;;;;;;19.50;12.07;;;14.80;99.90;;;;;;5009283;28;20032;-48
2022/06/20 03:55:34;;;;;;;13.80;10.38;;;14.70;99.90;;;;;;5009309;28;20052;-47
2022/06/20 03:58:24;;;;;;;17.08;11.57;;;14.70;99.90;;;;;;5009329;28;20033;-47
2022/06/20 04:01:03;;;;;;;20.35;10.88;;;14.70;99.90;;;;;;5008530;28;20033;-48
2022/06/20 04:03:34;;;;;;;18.80;10.85;;;14.60;99.90;;;;;;5009457;28;20037;-49
2022/06/20 04:06:21;;;;;;;;;;;14.50;99.90;;;;;;5009463;28;20165;-47
2022/06/20 04:12:06;;;;;;;13.52;8.77;;;14.40;99.90;;;;;;5009089;28;20076;-46
2022/06/20 04:14:40;;;;;;;12.60;9.68;;;14.40;99.90;;;;;;5007752;28;20409;-46
2022/06/20 04:20:31;;;;;;;16.77;10.80;;;14.20;99.90;;;;;;5008345;28;20107;-46
2022/06/20 04:23:01;;;;;;;16.40;10.68;;;14.20;99.90;;;;;;5008995;28;20034;-48
2022/06/20 04:25:34;;;;;;;18.23;10.77;;;14.20;99.90;;;;;;5008878;28;20018;-46
2022/06/20 04:28:12;;;;;;;14.88;11.75;;;14.20;99.90;;;;;;5008880;28;20026;-48
2022/06/20 04:30:45;;;;;;;21.13;11.18;;;14.20;99.90;;;;;;5008006;28;20045;-47
2022/06/20 04:33:17;;;;;;;14.15;11.00;;;14.10;99.90;;;;;;5008779;28;20069;-49
2022/06/20 04:36:03;;;;;;;22.63;12.82;;;14.00;99.90;;;;;;5008485;28;20029;-47
2022/06/20 04:38:47;;;;;;;17.73;11.27;;;14.10;99.90;;;;;;5008559;28;20037;-47
2022/06/20 04:41:20;;;;;;;17.25;12.10;;;14.10;99.90;;;;;;5008031;28;20032;-46
2022/06/20 04:44:18;;;;;;;15.32;11.07;;;14.00;99.90;;;;;;5009111;28;20056;-46
2022/06/20 04:46:54;;;;;;;20.23;14.15;;;14.00;99.90;;;;;;5011265;28;20037;-47
2022/06/20 04:49:20;;;;;;;17.40;12.88;;;14.00;99.90;;;;;;5012492;28;20113;-46
2022/06/20 04:51:48;;;;;;;16.67;11.98;;;14.00;99.90;;;;;;5010371;28;20168;-47
2022/06/20 04:54:18;;;;;;;18.92;12.35;;;14.00;99.90;;;;;;5012483;28;20022;-47
2022/06/20 04:56:44;;;;;;;22.05;13.35;;;14.00;99.90;;;;;;5013213;28;20034;-46
2022/06/20 04:59:16;;;;;;;18.63;14.00;;;14.00;99.90;;;;;;5012334;28;20034;-46
2022/06/20 05:01:42;;;;;;;17.98;13.68;;;14.00;99.90;;;;;;5011812;28;20496;-46
2022/06/20 05:04:25;;;;;;;16.02;11.57;;;14.00;99.90;;;;;;5012227;28;20084;-48
2022/06/20 05:06:53;;;;;;;21.25;13.93;;;14.00;99.90;;;;;;5021224;28;20056;-48
2022/06/20 05:09:26;;;;;;;17.05;13.20;;;14.00;99.90;;;;;;5020997;28;20067;-49
2022/06/20 05:12:01;;;;;;;20.88;15.07;;;14.00;99.90;;;;;;5019770;28;20036;-47
2022/06/20 05:14:34;;;;;;;20.27;14.77;;;14.00;99.90;;;;;;5022838;28;20025;-47
2022/06/20 05:17:03;;;;;;;23.17;15.73;;;14.00;99.90;;;;;;5021809;28;20034;-48
2022/06/20 05:19:38;;;;;;;19.42;15.20;;;14.10;99.90;;;;;;5014511;28;20026;-47
2022/06/20 05:22:12;;;;;;;22.98;15.55;;;14.10;99.90;;;;;;5012038;28;20082;-48
2022/06/20 05:24:39;;;;;;;21.20;15.50;;;14.00;99.90;;;;;;5010921;28;20034;-50
2022/06/20 05:27:22;;;;;;;18.10;14.75;;;14.00;99.90;;;;;;5019339;28;20041;-46
2022/06/20 05:29:51;;;;;;;18.58;14.98;;;14.00;99.90;;;;;;5027107;28;20033;-48
2022/06/20 05:32:37;;;;;;;22.30;15.43;;;13.90;99.90;;;;;;5031029;28;20034;-47
2022/06/20 05:35:17;;;;;;;22.17;14.32;;;13.90;99.90;;;;;;5027148;28;20029;-47
2022/06/20 05:37:48;;;;;;;22.40;16.52;;;13.90;99.90;;;;;;5023338;28;20124;-47
2022/06/20 05:40:22;;;;;;;22.52;15.45;;;14.00;99.90;;;;;;5030572;28;20129;-48
2022/06/20 05:42:48;;;;;;;22.08;15.20;;;14.00;99.90;;;;;;5030539;28;20037;-48
2022/06/20 05:45:24;;;;;;;23.65;16.95;;;14.00;99.90;;;;;;5030055;28;20230;-49
2022/06/20 05:47:53;;;;;;;21.13;16.33;;;14.00;99.90;;;;;;5029621;28;20071;-47
2022/06/20 05:50:33;;;;;;;23.45;15.30;;;14.10;99.90;;;;;;5028510;28;20056;-47
2022/06/20 05:53:03;;;;;;;23.83;15.55;;;14.10;99.90;;;;;;5034877;28;20038;-46
2022/06/20 05:55:37;;;;;;;25.00;16.73;;;14.10;99.90;;;;;;5029073;28;20553;-46
2022/06/20 05:58:05;;;;;;;23.35;15.90;;;14.10;99.90;;;;;;5012290;28;20546;-49
2022/06/20 06:00:33;;;;;;;23.42;16.60;;;14.10;99.90;;;;;;5015673;28;20041;-46
2022/06/20 06:03:05;;;;;;;23.45;16.90;;;14.10;99.90;;;;;;5029737;28;20103;-46
2022/06/20 06:05:38;;;;;;;20.92;17.25;;;14.20;99.90;;;;;;5011178;28;20031;-48
2022/06/20 06:08:17;;;;;;;28.10;17.15;;;14.20;99.90;;;;;;5011203;28;20037;-47
2022/06/20 06:10:48;;;;;;;27.95;19.10;;;14.20;99.90;;;;;;5010285;28;20044;-48
2022/06/20 06:13:51;;;;;;;25.67;18.27;;;14.20;99.90;;;;;;5016271;28;20487;-49
2022/06/20 06:16:46;;;;;;;26.88;18.45;;;14.20;99.90;;;;;;5031023;28;20033;-46
2022/06/20 06:19:34;;;;;;;24.33;17.70;;;14.10;99.90;;;;;;5030237;28;20423;-48
2022/06/20 06:22:03;;;;;;;26.88;18.88;;;14.20;99.90;;;;;;5029915;28;20029;-47
2022/06/20 06:24:32;;;;;;;23.95;17.90;;;14.20;99.90;;;;;;5029782;28;20494;-46
2022/06/20 06:26:59;;;;;;;24.33;17.05;;;14.20;99.90;;;;;;5030213;28;20057;-47
2022/06/20 06:29:43;;;;;;;30.35;19.67;;;14.20;99.90;;;;;;5028609;28;20687;-46
2022/06/20 06:32:18;;;;;;;25.17;18.25;;;14.20;99.90;;;;;;5028952;28;20084;-46
2022/06/20 06:35:03;;;;;;;23.98;17.65;;;14.30;99.90;;;;;;5029165;28;20410;-46
2022/06/20 06:37:41;;;;;;;30.70;18.85;;;14.30;99.90;;;;;;5028408;28;20037;-46
2022/06/20 06:40:23;;;;;;;28.45;19.55;;;14.30;99.90;;;;;;5028087;28;20521;-49
2022/06/20 06:42:50;;;;;;;25.52;17.95;;;14.30;99.90;;;;;;5028843;28;20046;-49
2022/06/20 06:45:21;;;;;;;34.63;20.85;;;14.30;99.90;;;;;;5029738;28;20163;-47
2022/06/20 06:47:56;;;;;;;25.80;18.58;;;14.40;99.90;;;;;;5014528;28;20021;-47
2022/06/20 06:50:39;;;;;;;32.70;21.65;;;14.40;99.90;;;;;;5028908;28;20017;-47
2022/06/20 06:53:23;;;;;;;29.98;20.20;;;14.40;99.90;;;;;;5029800;28;20407;-47
2022/06/20 06:55:57;;;;;;;32.53;21.38;;;14.40;99.90;;;;;;5029845;28;20040;-47
2022/06/20 06:58:36;;;;;;;33.55;22.60;;;14.40;99.90;;;;;;5029107;28;20021;-50
2022/06/20 07:01:12;;;;;;;32.78;20.83;;;14.40;99.90;;;;;;5028852;28;20394;-47
2022/06/20 07:04:00;;;;;;;32.17;22.38;;;14.40;99.90;;;;;;5029755;28;20021;-49
2022/06/20 07:06:31;;;;;;;32.33;21.15;;;14.30;99.90;;;;;;5028921;28;20547;-47
2022/06/20 07:09:19;;;;;;;;;;;14.30;99.90;;;;;;5030040;28;20025;-47
2022/06/20 07:11:53;;;;;;;32.60;19.30;;;14.30;99.90;;;;;;5017275;28;20098;-46
2022/06/20 07:14:21;;;;;;;31.23;21.38;;;14.30;99.90;;;;;;5029024;28;20034;-46
2022/06/20 07:16:53;;;;;;;30.60;21.75;;;14.20;99.90;;;;;;5009796;28;20431;-48
2022/06/20 07:19:20;;;;;;;31.10;21.65;;;14.20;99.90;;;;;;5018264;28;20025;-46
2022/06/20 07:21:46;;;;;;;31.40;21.40;;;14.20;99.90;;;;;;5026619;28;20061;-49
2022/06/20 07:24:19;;;;;;;29.10;20.10;;;14.30;99.90;;;;;;5029235;28;20053;-46
2022/06/20 07:26:58;;;;;;;31.73;21.15;;;14.30;99.90;;;;;;5029361;28;20108;-46
2022/06/20 07:29:34;;;;;;;36.22;21.52;;;14.30;99.90;;;;;;5025569;28;20017;-46
2022/06/20 07:32:05;;;;;;;28.10;19.23;;;14.20;99.90;;;;;;5015734;28;20037;-45
2022/06/20 07:34:46;;;;;;;35.58;19.15;;;14.20;99.90;;;;;;5028868;28;20036;-46
2022/06/20 07:37:11;;;;;;;;;;;14.20;99.90;;;;;;5028985;28;20059;-48
2022/06/20 07:39:42;;;;;;;29.77;16.50;;;14.20;99.90;;;;;;5026727;28;19909;-46
2022/06/20 07:42:14;;;;;;;25.50;16.20;;;14.20;99.90;;;;;;5026740;28;20495;-46
2022/06/20 07:44:47;;;;;;;20.80;15.82;;;14.20;99.90;;;;;;5029171;28;20041;-47
2022/06/20 07:47:25;;;;;;;21.65;15.45;;;14.20;99.90;;;;;;5028962;28;20036;-48
2022/06/20 07:49:54;;;;;;;24.88;16.65;;;14.30;99.90;;;;;;5028155;28;20037;-46
2022/06/20 07:52:40;;;;;;;23.63;16.05;;;14.40;99.90;;;;;;5028133;28;20120;-46
2022/06/20 07:55:13;;;;;;;25.38;15.82;;;14.50;99.90;;;;;;5028236;28;20029;-46
2022/06/20 07:57:50;;;;;;;21.65;15.00;;;14.60;99.90;;;;;;5027249;28;20033;-45
2022/06/20 08:00:21;;;;;;;20.40;13.90;;;14.60;99.90;;;;;;5027974;28;20026;-46
2022/06/20 08:02:52;;;;;;;;;;;14.60;99.90;;;;;;5027670;28;20028;-47
2022/06/20 08:05:29;;;;;;;22.58;11.88;;;14.70;99.90;;;;;;5027497;28;19912;-48
2022/06/20 08:08:03;;;;;;;19.33;10.98;;;14.70;99.90;;;;;;5028430;28;20648;-45
2022/06/20 08:10:38;;;;;;;16.45;10.48;;;14.70;99.90;;;;;;5026443;28;20037;-47
2022/06/20 08:13:25;;;;;;;14.60;8.60;;;14.80;99.90;;;;;;5028101;28;20084;-50
2022/06/20 08:15:57;;;;;;;16.20;9.63;;;14.80;99.90;;;;;;5028054;28;20460;-46
2022/06/20 08:18:24;;;;;;;16.00;8.98;;;14.80;99.90;;;;;;5028249;28;20029;-48
2022/06/20 08:20:58;;;;;;;14.82;9.82;;;14.70;99.90;;;;;;5027033;28;20033;-46
2022/06/20 08:23:38;;;;;;;12.40;9.10;;;14.70;99.90;;;;;;5026735;28;20052;-46
2022/06/20 08:26:09;;;;;;;14.80;9.07;;;14.70;99.90;;;;;;5028572;28;20105;-47
2022/06/20 08:28:48;;;;;;;15.75;7.75;;;14.60;99.90;;;;;;5027114;28;20025;-49
2022/06/20 08:31:24;;;;;;;19.67;11.02;;;14.60;99.90;;;;;;5027049;28;20108;-47
2022/06/20 08:34:02;;;;;;;17.52;9.20;;;14.60;99.90;;;;;;5028851;28;20040;-50
2022/06/20 08:36:46;;;;;;;14.25;8.30;;;14.60;99.90;;;;;;5028453;28;20155;-47
2022/06/20 08:39:16;;;;;;;15.02;7.30;;;14.60;99.90;;;;;;5029485;28;20029;-48
2022/06/20 08:41:57;;;;;;;15.32;7.97;;;14.50;99.90;;;;;;5028215;28;20032;-47
2022/06/20 08:44:46;;;;;;;10.85;6.90;;;14.50;99.90;;;;;;5029220;28;20045;-47
2022/06/20 08:47:41;;;;;;;15.98;6.70;;;14.50;99.90;;;;;;5021844;28;20683;-47
2022/06/20 08:50:32;;;;;;;11.95;6.53;;;14.40;99.90;;;;;;5048586;28;20037;-48
2022/06/20 08:53:31;;;;;;;10.57;6.55;;;14.30;99.90;;;;;;5016527;28;20395;-47
2022/06/20 08:56:33;;;;;;;14.93;7.20;;;14.30;99.90;;;;;;5020751;28;20415;-53
2022/06/20 08:59:02;;;;;;;12.38;6.22;;;14.40;99.90;;;;;;5018569;28;20041;-46
2022/06/20 09:01:55;;;;;;;13.60;7.68;;;14.30;99.90;;;;;;5018459;28;20224;-47
2022/06/20 09:04:53;;;;;;;18.83;6.95;;;14.30;99.90;;;;;;5023206;28;20030;-46
2022/06/20 09:07:48;;;;;;;18.13;8.13;;;14.30;99.90;;;;;;5021188;28;20104;-47
2022/06/20 09:10:29;;;;;;;16.48;8.55;;;14.20;99.90;;;;;;5020367;28;20030;-48
2022/06/20 09:13:12;;;;;;;16.35;8.32;;;14.20;99.90;;;;;;5020692;28;20087;-47
2022/06/20 09:16:09;;;;;;;20.40;8.82;;;14.20;99.90;;;;;;5017672;28;20038;-47
2022/06/20 09:18:58;;;;;;;18.83;7.72;;;14.30;99.90;;;;;;5022685;28;20098;-49
2022/06/20 09:21:38;;;;;;;18.23;8.27;;;14.20;99.90;;;;;;5018069;28;20030;-48
2022/06/20 09:24:41;;;;;;;19.65;8.57;;;14.20;99.90;;;;;;5018938;28;20368;-48
2022/06/20 09:27:34;;;;;;;19.95;8.90;;;14.30;99.90;;;;;;5019884;28;20022;-49
2022/06/20 09:30:10;;;;;;;22.48;8.63;;;14.40;99.90;;;;;;5025269;28;20026;-46
2022/06/20 09:33:09;;;;;;;17.90;7.97;;;14.40;99.90;;;;;;5013845;28;20045;-48
2022/06/20 09:36:00;;;;;;;23.45;7.35;;;14.50;99.90;;;;;;5029764;28;20029;-46
2022/06/20 09:38:36;;;;;;;16.35;6.85;;;14.60;99.90;;;;;;5027792;28;20379;-46
2022/06/20 09:41:31;;;;;;;19.00;7.65;;;14.70;99.90;;;;;;5025830;28;20021;-45
2022/06/20 09:44:10;;;;;;;14.05;6.68;;;14.90;99.90;;;;;;5024113;28;20029;-46
2022/06/20 09:47:00;;;;;;;12.75;5.90;;;15.00;99.90;;;;;;5018502;28;20128;-46
2022/06/20 09:49:35;;;;;;;21.20;7.32;;;15.20;99.90;;;;;;5022032;28;20418;-46
2022/06/20 09:52:34;;;;;;;14.05;6.38;;;15.30;99.90;;;;;;5029885;28;20124;-47
2022/06/20 09:55:12;;;;;;;20.95;5.75;;;15.40;99.90;;;;;;5019652;28;20120;-47
2022/06/20 09:57:47;;;;;;;12.60;4.63;;;15.60;99.90;;;;;;5019156;28;20087;-46
2022/06/20 10:00:20;;;;;;;16.83;5.28;;;15.70;99.90;;;;;;5021017;28;20044;-47
2022/06/20 10:03:05;;;;;;;16.10;4.93;;;15.80;99.90;;;;;;5022073;28;20305;-49
2022/06/20 10:06:06;;;;;;;17.95;5.50;;;15.90;99.90;;;;;;5022935;28;20101;-47
2022/06/20 10:08:55;;;;;;;11.50;4.47;;;15.90;99.90;;;;;;5021951;28;20108;-46
2022/06/20 10:11:32;;;;;;;13.43;4.80;;;15.90;99.90;;;;;;5021026;28;20045;-46
2022/06/20 10:14:26;;;;;;;13.90;4.30;;;16.00;99.90;;;;;;5021358;28;20273;-47
2022/06/20 10:17:11;;;;;;;12.63;4.68;;;15.90;99.90;;;;;;5025561;28;20280;-47
2022/06/20 10:19:52;;;;;;;17.92;4.97;;;15.80;99.90;;;;;;5021579;28;20044;-47
2022/06/20 10:22:29;;;;;;;16.80;4.40;;;15.90;99.90;;;;;;5021848;28;20040;-47
2022/06/20 10:25:25;;;;;;;11.95;4.80;;;15.90;99.90;;;;;;5046716;28;20127;-48
2022/06/20 10:28:18;;;;;;;12.52;5.05;;;15.90;99.90;;;;;;5025776;28;20447;-47
2022/06/20 10:31:07;;;;;;;17.38;4.97;;;16.10;99.90;;;;;;5020019;28;20368;-47
2022/06/20 10:34:10;;;;;;;16.63;4.30;;;16.30;99.90;;;;;;5052364;28;20041;-47
2022/06/20 10:37:03;;;;;;;7.35;3.25;;;16.80;99.90;;;;;;5023911;28;20120;-44
2022/06/20 10:39:45;;;;;;;17.20;4.35;;;17.40;99.90;;;;;;5023666;28;20112;-44
2022/06/20 10:42:31;;;;;;;11.52;3.72;;;18.00;99.90;;;;;;5020346;28;20029;-44
2022/06/20 10:45:10;;;;;;;13.32;3.38;;;18.30;99.90;;;;;;5021450;28;20036;-45
2022/06/20 10:47:49;;;;;;;12.68;4.22;;;19.00;99.90;;;;;;5021253;28;20028;-47
2022/06/20 10:50:29;;;;;;;17.48;4.80;;;19.20;99.90;;;;;;5020264;28;20494;-47
2022/06/20 10:53:29;;;;;;;19.00;4.70;;;19.30;99.90;;;;;;5021699;28;20037;-44
2022/06/20 10:56:14;;;;;;;12.77;3.90;;;19.40;99.90;;;;;;5010333;28;20037;-45
2022/06/20 10:59:20;;;;;;;13.25;3.38;;;19.70;99.90;;;;;;5028449;28;20033;-48
2022/06/20 11:01:51;;;;;;;10.27;3.55;;;20.10;99.90;;;;;;5028576;28;20032;-45
2022/06/20 11:04:47;;;;;;;7.43;3.05;;;19.90;99.90;;;;;;5029543;28;20679;-44
2022/06/20 11:07:31;;;;;;;8.00;3.60;;;20.00;99.90;;;;;;5028100;28;20033;-48
2022/06/20 11:10:13;;;;;;;12.90;3.45;;;20.00;99.90;;;;;;5029115;28;20107;-45
2022/06/20 11:12:48;;;;;;;10.25;3.40;;;19.80;99.90;;;;;;5028342;28;20041;-45
2022/06/20 11:15:41;;;;;;;8.40;3.40;;;20.00;99.90;;;;;;5029187;28;20499;-45
2022/06/20 11:18:27;;;;;;;9.95;3.30;;;19.90;99.90;;;;;;5028879;28;20064;-46
2022/06/20 11:21:13;;;;;;;10.65;3.80;;;19.80;99.90;;;;;;5027298;28;20058;-45
2022/06/20 11:24:01;;;;;;;13.35;3.55;;;19.40;99.90;;;;;;5029368;28;20482;-51
2022/06/20 11:26:51;;;;;;;11.60;4.05;;;19.70;99.90;;;;;;5028965;28;20029;-49
2022/06/20 11:29:22;;;;;;;15.35;3.85;;;19.60;99.90;;;;;;5029029;28;20025;-48
2022/06/20 11:32:14;;;;;;;11.23;4.15;;;19.40;99.90;;;;;;5027375;28;20117;-49
2022/06/20 11:35:16;;;;;;;13.77;3.75;;;19.50;99.90;;;;;;5013422;28;20415;-51
2022/06/20 11:37:52;;;;;;;8.52;3.28;;;19.50;99.90;;;;;;5027798;28;20049;-49
2022/06/20 11:40:24;;;;;;;12.50;3.72;;;19.40;99.90;;;;;;5016509;28;20034;-48
2022/06/20 11:42:49;;;;;;;13.57;3.75;;;19.20;99.90;;;;;;5042719;28;20127;-47
2022/06/20 11:45:21;;;;;;;8.82;2.80;;;19.10;99.90;;;;;;5028719;28;20108;-48
2022/06/20 11:47:52;;;;;;;7.90;3.58;;;18.90;99.90;;;;;;5029440;28;20669;-49
2022/06/20 11:50:57;;;;;;;10.80;3.00;;;18.60;99.90;;;;;;5028229;28;20490;-47
2022/06/20 11:53:55;;;;;;;9.85;3.20;;;18.40;99.90;;;;;;5028321;28;20040;-47
2022/06/20 11:56:44;;;;;;;9.20;3.45;;;18.30;99.90;;;;;;5027746;28;20464;-48
2022/06/20 11:59:22;;;;;;;11.95;3.95;;;18.00;99.90;;;;;;5028987;28;20422;-47
2022/06/20 12:02:20;;;;;;;6.03;3.88;;;17.90;99.90;;;;;;5027913;28;20458;-47
2022/06/20 12:04:56;;;;;;;9.30;3.53;;;18.10;99.90;;;;;;5028608;28;20403;-49
2022/06/20 12:07:35;;;;;;;6.35;2.90;;;18.90;99.90;;;;;;5028791;28;20025;-47
2022/06/20 12:10:37;;;;;;;14.90;6.90;;;19.20;99.90;;;;;;5027589;28;20021;-50
2022/06/20 12:13:18;;;;;;;8.13;2.85;;;19.60;99.90;;;;;;5028595;28;20049;-49
2022/06/20 12:16:21;;;;;;;6.43;2.60;;;19.80;99.90;;;;;;5028558;28;20105;-48
2022/06/20 12:24:46;;;;;;;5.40;1.98;;;20.10;99.10;;;;;;5028962;28;20064;-48
2022/06/20 12:27:15;;;;;;;5.40;1.98;;;20.40;96.30;;;;;;5027043;28;20372;-48
2022/06/20 12:29:42;;;;;;;6.05;2.00;;;20.70;95.50;;;;;;5026795;28;20021;-48
2022/06/20 12:32:16;;;;;;;5.75;2.05;;;21.30;94.20;;;;;;5028666;28;20033;-48
2022/06/20 12:34:46;;;;;;;4.75;1.77;;;21.80;92.50;;;;;;5028823;28;20091;-48
2022/06/20 12:37:25;;;;;;;7.30;2.13;;;22.20;93.50;;;;;;5028337;28;20121;-50
2022/06/20 12:40:10;;;;;;;7.18;2.20;;;22.20;92.10;;;;;;5028077;28;20124;-48
2022/06/20 12:43:04;;;;;;;5.22;1.80;;;22.70;92.20;;;;;;5028335;28;20390;-49
2022/06/20 12:46:00;;;;;;;6.50;1.92;;;22.50;91.20;;;;;;5028528;28;20033;-48
2022/06/20 12:48:28;;;;;;;4.68;1.88;;;22.40;90.40;;;;;;5027856;28;20399;-48
2022/06/20 12:51:24;;;;;;;4.43;1.90;;;22.30;92.20;;;;;;5028058;28;20038;-49
2022/06/20 12:54:24;;;;;;;3.92;1.65;;;22.30;89.20;;;;;;5028724;28;20033;-50
2022/06/20 12:57:28;;;;;;;6.10;2.25;;;22.20;86.20;;;;;;5028580;28;20540;-52
2022/06/20 12:59:56;;;;;;;7.22;1.92;;;22.20;86.80;;;;;;5027693;28;20541;-47
2022/06/20 13:02:40;;;;;;;5.38;1.92;;;22.00;90.40;;;;;;5027717;28;20026;-48
2022/06/20 13:05:16;;;;;;;3.75;1.70;;;21.70;88.50;;;;;;5028413;28;20036;-49
2022/06/20 13:07:52;;;;;;;6.20;1.83;;;21.50;88.20;;;;;;5032243;28;20471;-49
2022/06/20 13:10:36;;;;;;;4.53;2.15;;;21.30;90.60;;;;;;5031834;28;20310;-50
2022/06/20 13:13:16;;;;;;;3.40;1.77;;;20.80;80.70;;;;;;5032148;28;20030;-49
2022/06/20 13:15:46;;;;;;;5.63;1.70;;;20.70;83.60;;;;;;5032144;28;20034;-47
2022/06/20 13:18:15;;;;;;;3.28;1.80;;;20.70;83.50;;;;;;5031979;28;20030;-50
2022/06/20 13:20:51;;;;;;;7.07;2.00;;;20.80;82.70;;;;;;5031436;28;20017;-49
2022/06/20 13:23:25;;;;;;;4.10;2.00;;;21.30;84.90;;;;;;5031714;28;20204;-50
2022/06/20 13:25:57;;;;;;;4.15;1.60;;;22.00;80.60;;;;;;5032194;28;20021;-49
2022/06/20 13:28:33;;;;;;;2.42;1.60;;;22.40;75.90;;;;;;5031513;28;20037;-48
2022/06/20 13:31:16;;;;;;;4.03;1.80;;;22.80;74.10;;;;;;5031191;28;20032;-49
2022/06/20 13:33:53;;;;;;;5.30;1.63;;;23.00;71.40;;;;;;5031411;28;20151;-49
2022/06/20 13:36:45;;;;;;;5.55;2.00;;;23.00;76.00;;;;;;5031886;28;20442;-49
2022/06/20 13:39:45;;;;;;;3.92;1.77;;;22.90;73.00;;;;;;5030057;28;20075;-51
2022/06/20 13:42:31;;;;;;;9.57;2.42;;;22.50;74.20;;;;;;5031599;28;20475;-51